Time;durP1;ratioP1;P1;durP2;ratioP2;P2;SDS_P1;SDS_P2;PMS_P1;PMS_P2;Temp;Humidity;BMP_temperature;BMP_pressure;BME280_temperature;BME280_humidity;BME280_pressure;Samples;Min_cycle;Max_cycle;Signal;HPM_P1;HPM_P2
2022/06/11 00:00:46;;;;;;;;;;;;;;;15.81;63.27832;102064.4;;;;-82
2022/06/11 00:05:46;;;;;;;;;;;;;;;15.76;63.47266;102064.1;;;;-82
2022/06/11 00:10:46;;;;;;;;;;;;;;;15.72;63.30859;102067.2;;;;-83
2022/06/11 00:15:46;;;;;;;;;;;;;;;15.62;63.45313;102063.8;;;;-83
2022/06/11 00:16:40;;;;;;;6.2;1.4;;;;;;;;;;;;;-82
2022/06/11 00:20:46;;;;;;;;;;;;;;;15.6;63.4502;102068.1;;;;-82
2022/06/11 00:25:46;;;;;;;;;;;;;;;15.55;63.36426;102068.4;;;;-82
2022/06/11 00:30:49;;;;;;;;;;;;;;;15.49;63.43359;102068.1;;;;-82
2022/06/11 00:35:46;;;;;;;;;;;;;;;15.41;63.66992;102066.6;;;;-82
2022/06/11 00:40:52;;;;;;;;;;;;;;;15.38;63.71191;102062.5;;;;-86
2022/06/11 00:45:50;;;;;;;;;;;;;;;15.31;64.12793;102054.7;;;;-81
2022/06/11 00:46:47;;;;;;;10;1.9;;;;;;;;;;;;;-81
2022/06/11 00:50:47;;;;;;;;;;;;;;;15.26;64.35645;102055;;;;-82
2022/06/11 00:55:48;;;;;;;;;;;;;;;15.24;64.54492;102055.9;;;;-80
2022/06/11 01:00:47;;;;;;;;;;;;;;;15.2;64.56152;102049.6;;;;-80
2022/06/11 01:05:47;;;;;;;;;;;;;;;15.15;64.75586;102055.5;;;;-82
2022/06/11 01:10:57;;;;;;;;;;;;;;;15.11;64.91895;102056.9;;;;-81
2022/06/11 01:15:48;;;;;;;;;;;;;;;15.07;65.32813;102063.4;;;;-82
2022/06/11 01:16:46;;;;;;;10.6;1.8;;;;;;;;;;;;;-80
2022/06/11 01:20:50;;;;;;;;;;;;;;;15.06;65.30566;102052;;;;-81
2022/06/11 01:25:53;;;;;;;;;;;;;;;15.03;65.01758;102053;;;;-82
2022/06/11 01:30:50;;;;;;;;;;;;;;;14.99;65.44043;102052.4;;;;-82
2022/06/11 01:35:52;;;;;;;;;;;;;;;14.92;65.3291;102049.9;;;;-82
2022/06/11 01:40:48;;;;;;;;;;;;;;;14.89;65.41504;102053.3;;;;-82
2022/06/11 01:45:46;;;;;;;;;;;;;;;14.85;65.45313;102049.5;;;;-82
2022/06/11 01:46:46;;;;;;;7.2;1.6;;;;;;;;;;;;;-82
2022/06/11 01:50:48;;;;;;;;;;;;;;;14.77;65.38477;102042.4;;;;-82
2022/06/11 01:55:52;;;;;;;;;;;;;;;14.73;65.72852;102048.9;;;;-80
2022/06/11 02:00:50;;;;;;;;;;;;;;;14.69;65.93359;102046.1;;;;-82
2022/06/11 02:05:56;;;;;;;;;;;;;;;14.66;66.06348;102045.6;;;;-81
2022/06/11 02:10:49;;;;;;;;;;;;;;;14.62;66.48438;102046.8;;;;-80
2022/06/11 02:15:50;;;;;;;;;;;;;;;14.61;66.71875;102055.9;;;;-82
2022/06/11 02:16:50;;;;;;;11.3;2.2;;;;;;;;;;;;;-80
2022/06/11 02:20:55;;;;;;;;;;;;;;;14.59;66.41113;102052.4;;;;-81
2022/06/11 02:25:48;;;;;;;;;;;;;;;14.55;66.26074;102062.6;;;;-81
2022/06/11 02:30:49;;;;;;;;;;;;;;;14.5;66.5;102063.4;;;;-81
2022/06/11 02:35:58;;;;;;;;;;;;;;;14.46;66.65137;102065.1;;;;-82
2022/06/11 02:40:47;;;;;;;;;;;;;;;14.44;66.89453;102064.3;;;;-81
2022/06/11 02:45:48;;;;;;;;;;;;;;;14.4;67.05664;102065.6;;;;-81
2022/06/11 02:46:48;;;;;;;9.6;2.1;;;;;;;;;;;;;-81
2022/06/11 02:50:46;;;;;;;;;;;;;;;14.39;67.04395;102066.7;;;;-81
2022/06/11 02:55:46;;;;;;;;;;;;;;;14.36;67.2627;102067.2;;;;-82
2022/06/11 03:00:50;;;;;;;;;;;;;;;14.32;67.30176;102068.8;;;;-83
2022/06/11 03:05:47;;;;;;;;;;;;;;;14.3;67.57813;102075.3;;;;-82
2022/06/11 03:10:54;;;;;;;;;;;;;;;14.29;67.34277;102079.3;;;;-82
2022/06/11 03:15:46;;;;;;;;;;;;;;;14.25;67.36914;102084;;;;-81
2022/06/11 03:16:50;;;;;;;12.2;2.2;;;;;;;;;;;;;-82
2022/06/11 03:20:46;;;;;;;;;;;;;;;14.22;67.5332;102084.6;;;;-81
2022/06/11 03:25:46;;;;;;;;;;;;;;;14.19;67.68555;102089.8;;;;-82
2022/06/11 03:30:46;;;;;;;;;;;;;;;14.16;67.46777;102097.4;;;;-82
2022/06/11 03:35:49;;;;;;;;;;;;;;;14.15;67.87988;102105.2;;;;-82
2022/06/11 03:40:46;;;;;;;;;;;;;;;14.14;67.84473;102106;;;;-81
2022/06/11 03:45:46;;;;;;;;;;;;;;;14.11;68.08789;102114.9;;;;-80
2022/06/11 03:46:51;;;;;;;10.4;2.4;;;;;;;;;;;;;-82
2022/06/11 03:50:46;;;;;;;;;;;;;;;14.12;67.93164;102119.3;;;;-80
2022/06/11 03:55:47;;;;;;;;;;;;;;;14.13;68.15625;102118;;;;-80
2022/06/11 04:05:46;;;;;;;;;;;;;;;14.17;68.46484;102136.6;;;;-80
2022/06/11 04:10:48;;;;;;;;;;;;;;;14.19;68.6709;102138.7;;;;-82
2022/06/11 04:15:46;;;;;;;;;;;;;;;14.21;68.81836;102140.1;;;;-81
2022/06/11 04:16:53;;;;;;;14.3;2.4;;;;;;;;;;;;;-80
2022/06/11 04:20:46;;;;;;;;;;;;;;;14.23;69.03516;102140;;;;-81
2022/06/11 04:25:46;;;;;;;;;;;;;;;14.27;69.12988;102143.6;;;;-81
2022/06/11 04:30:46;;;;;;;;;;;;;;;14.31;69.07031;102147.6;;;;-81
2022/06/11 04:35:46;;;;;;;;;;;;;;;14.34;69.32129;102155.2;;;;-80
2022/06/11 04:40:47;;;;;;;;;;;;;;;14.4;69.55371;102170.6;;;;-82
2022/06/11 04:45:46;;;;;;;;;;;;;;;14.45;69.86426;102165.5;;;;-81
2022/06/11 04:46:54;;;;;;;15.2;3.1;;;;;;;;;;;;;-81
2022/06/11 04:50:48;;;;;;;;;;;;;;;14.54;69.85645;102174.1;;;;-82
2022/06/11 04:55:46;;;;;;;;;;;;;;;14.61;70.23926;102175.2;;;;-81
2022/06/11 05:00:46;;;;;;;;;;;;;;;14.68;69.99121;102174.3;;;;-82
2022/06/11 05:05:46;;;;;;;;;;;;;;;14.77;70.06055;102178;;;;-81
2022/06/11 05:10:46;;;;;;;;;;;;;;;14.84;69.84766;102179.1;;;;-82
2022/06/11 05:15:48;;;;;;;;;;;;;;;14.94;70.05469;102187.8;;;;-82
2022/06/11 05:16:56;;;;;;;16;2.9;;;;;;;;;;;;;-81
2022/06/11 05:20:46;;;;;;;;;;;;;;;15.09;69.74219;102189.5;;;;-81
2022/06/11 05:25:47;;;;;;;;;;;;;;;15.38;69.24805;102179.1;;;;-81
2022/06/11 05:30:47;;;;;;;;;;;;;;;15.98;68.45605;102187.7;;;;-81
2022/06/11 05:46:03;;;;;;;;;;;;;;;17.58;64.6377;102201.8;;;;-83
2022/06/11 05:46:57;;;;;;;18.6;3.2;;;;;;;;;;;;;-83
2022/06/11 05:50:49;;;;;;;;;;;;;;;17.96;63.92383;102202.2;;;;-83
2022/06/11 05:55:47;;;;;;;;;;;;;;;18.34;62.99512;102202.4;;;;-81
2022/06/11 06:00:46;;;;;;;;;;;;;;;18.73;62.07422;102195.3;;;;-82
2022/06/11 06:05:46;;;;;;;;;;;;;;;19.07;61.57813;102199.4;;;;-82
2022/06/11 06:10:47;;;;;;;;;;;;;;;19.48;60.4541;102204;;;;-82
2022/06/11 06:15:46;;;;;;;;;;;;;;;19.93;59.50195;102210.2;;;;-83
2022/06/11 06:16:59;;;;;;;14.7;2.7;;;;;;;;;;;;;-84
2022/06/11 06:20:46;;;;;;;;;;;;;;;20.37;58.57129;102213.4;;;;-82
2022/06/11 06:25:46;;;;;;;;;;;;;;;20.77;57.7002;102212.1;;;;-83
2022/06/11 06:30:45;;;;;;;;;;;;;;;21.16;56.78027;102219.2;;;;-82
2022/06/11 06:35:46;;;;;;;;;;;;;;;21.48;55.97461;102219.3;;;;-83
2022/06/11 06:40:48;;;;;;;;;;;;;;;21.79;55.16797;102229.2;;;;-82
2022/06/11 06:45:50;;;;;;;;;;;;;;;22.1;54.45117;102228.8;;;;-82
2022/06/11 06:47:02;;;;;;;11.3;2.7;;;;;;;;;;;;;-83
2022/06/11 06:50:46;;;;;;;;;;;;;;;22.47;53.7959;102239.7;;;;-82
2022/06/11 06:55:46;;;;;;;;;;;;;;;22.77;52.86914;102237.8;;;;-82
2022/06/11 07:00:49;;;;;;;;;;;;;;;22.99;51.91895;102236.3;;;;-83
2022/06/11 07:05:48;;;;;;;;;;;;;;;23.15;51.56934;102242.6;;;;-80
2022/06/11 07:10:49;;;;;;;;;;;;;;;23.35;51.12305;102238.8;;;;-81
2022/06/11 07:15:46;;;;;;;;;;;;;;;23.49;49.93066;102244.7;;;;-81
2022/06/11 07:17:06;;;;;;;13.5;2.5;;;;;;;;;;;;;-82
2022/06/11 07:20:47;;;;;;;;;;;;;;;23.6;49.55371;102240.7;;;;-82
2022/06/11 07:25:46;;;;;;;;;;;;;;;23.86;48.91406;102237.2;;;;-81
2022/06/11 07:30:46;;;;;;;;;;;;;;;24.06;48.47461;102239.2;;;;-83
2022/06/11 07:35:46;;;;;;;;;;;;;;;24.27;48.10547;102235.1;;;;-82
2022/06/11 07:40:45;;;;;;;;;;;;;;;24.54;47.62793;102237.3;;;;-82
2022/06/11 07:45:48;;;;;;;;;;;;;;;24.79;47.27246;102239.7;;;;-82
2022/06/11 07:47:10;;;;;;;9.3;2.1;;;;;;;;;;;;;-80
2022/06/11 07:50:51;;;;;;;;;;;;;;;24.97;46.84277;102240.9;;;;-80
2022/06/11 07:55:47;;;;;;;;;;;;;;;25.15;46.57129;102248.4;;;;-82
2022/06/11 08:00:47;;;;;;;;;;;;;;;25.26;46.16602;102251.6;;;;-81
2022/06/11 08:05:49;;;;;;;;;;;;;;;25.4;45.91602;102263;;;;-85
2022/06/11 08:10:49;;;;;;;;;;;;;;;25.43;45.44434;102267.9;;;;-83
2022/06/11 08:15:47;;;;;;;;;;;;;;;25.58;45.22754;102276.9;;;;-84
2022/06/11 08:17:12;;;;;;;8.5;2.4;;;;;;;;;;;;;-80
2022/06/11 08:20:46;;;;;;;;;;;;;;;25.76;44.88672;102278;;;;-84
2022/06/11 08:25:46;;;;;;;;;;;;;;;25.92;44.40527;102275.6;;;;-83
2022/06/11 08:30:47;;;;;;;;;;;;;;;26.12;44.1582;102273.2;;;;-84
2022/06/11 08:35:46;;;;;;;;;;;;;;;26.31;43.60938;102278;;;;-83
2022/06/11 08:40:48;;;;;;;;;;;;;;;26.41;43.21387;102281.3;;;;-84
2022/06/11 08:45:50;;;;;;;;;;;;;;;26.6;43.02246;102271.5;;;;-82
2022/06/11 08:47:23;;;;;;;11.2;2.5;;;;;;;;;;;;;-84
2022/06/11 08:51:01;;;;;;;;;;;;;;;26.78;42.44727;102270.6;;;;-84
2022/06/11 08:55:52;;;;;;;;;;;;;;;26.94;42.1377;102274.2;;;;-84
2022/06/11 09:00:50;;;;;;;;;;;;;;;27.12;41.7832;102269.1;;;;-83
2022/06/11 09:06:03;;;;;;;;;;;;;;;27.27;41.18066;102264.9;;;;-80
2022/06/11 09:11:01;;;;;;;;;;;;;;;27.42;40.76367;102273.2;;;;-83
2022/06/11 09:15:52;;;;;;;;;;;;;;;27.57;40.70703;102270;;;;-83
2022/06/11 09:17:33;;;;;;;8.4;2;;;;;;;;;;;;;-82
2022/06/11 09:20:52;;;;;;;;;;;;;;;27.75;40.6416;102271.4;;;;-82
2022/06/11 09:25:53;;;;;;;;;;;;;;;27.98;40.47656;102275.6;;;;-83
2022/06/11 09:30:49;;;;;;;;;;;;;;;28.13;40.02344;102267.2;;;;-82
2022/06/11 09:35:50;;;;;;;;;;;;;;;28.31;39.75977;102271.7;;;;-79
2022/06/11 09:40:49;;;;;;;;;;;;;;;28.43;39.03418;102273.5;;;;-76
2022/06/11 09:45:50;;;;;;;;;;;;;;;28.62;39.36719;102282.2;;;;-77
2022/06/11 09:47:26;;;;;;;10.4;1.8;;;;;;;;;;;;;-76
2022/06/11 09:50:49;;;;;;;;;;;;;;;26.76;36.53125;102284.7;;;;-78
2022/06/11 09:55:52;;;;;;;;;;;;;;;25.69;37.32617;102288;;;;-77
2022/06/11 10:00:47;;;;;;;;;;;;;;;25.24;38.05469;102288.7;;;;-76
2022/06/11 10:05:50;;;;;;;;;;;;;;;25.23;38.35449;102287.3;;;;-75
2022/06/11 10:10:47;;;;;;;;;;;;;;;25.3;38.45313;102293.1;;;;-77
2022/06/11 10:15:46;;;;;;;;;;;;;;;25.32;38.61719;102292.3;;;;-76
2022/06/11 10:17:29;;;;;;;9.7;2.2;;;;;;;;;;;;;-78
2022/06/11 10:20:48;;;;;;;;;;;;;;;25.4;38.64746;102305.1;;;;-79
2022/06/11 10:25:50;;;;;;;;;;;;;;;25.25;39.05078;102307.2;;;;-74
2022/06/11 10:30:49;;;;;;;;;;;;;;;25.41;39.25098;102304.3;;;;-75
2022/06/11 10:35:48;;;;;;;;;;;;;;;25.21;38.81543;102311.7;;;;-79
2022/06/11 10:40:49;;;;;;;;;;;;;;;25.6;39.08203;102310.2;;;;-82
2022/06/11 10:45:46;;;;;;;;;;;;;;;25.51;38.5293;102305.8;;;;-77
2022/06/11 10:47:34;;;;;;;11.9;2.2;;;;;;;;;;;;;-77
2022/06/11 10:50:45;;;;;;;;;;;;;;;25.27;38.68164;102303.6;;;;-76
2022/06/11 10:55:48;;;;;;;;;;;;;;;25.31;39.36816;102301.6;;;;-77
2022/06/11 11:00:50;;;;;;;;;;;;;;;25.38;37.69531;102302.3;;;;-77
2022/06/11 11:05:53;;;;;;;;;;;;;;;25.56;37.55957;102299.8;;;;-77
2022/06/11 11:10:50;;;;;;;;;;;;;;;25.36;38.31836;102306.4;;;;-79
2022/06/11 11:15:49;;;;;;;;;;;;;;;25.29;39.50488;102300.2;;;;-81
2022/06/11 11:17:37;;;;;;;10.1;2.3;;;;;;;;;;;;;-82
2022/06/11 11:20:46;;;;;;;;;;;;;;;25.3;38.98633;102301.9;;;;-79
2022/06/11 11:25:47;;;;;;;;;;;;;;;25.13;38.54297;102298;;;;-78
2022/06/11 11:30:47;;;;;;;;;;;;;;;25.25;38.73828;102295.6;;;;-79
2022/06/11 11:35:45;;;;;;;;;;;;;;;25.31;38.02441;102288;;;;-79
2022/06/11 11:40:53;;;;;;;;;;;;;;;25.55;38.68262;102291.6;;;;-79
2022/06/11 11:45:49;;;;;;;;;;;;;;;25.48;37.40234;102286.4;;;;-79
2022/06/11 11:47:39;;;;;;;10.5;2.1;;;;;;;;;;;;;-75
2022/06/11 11:50:50;;;;;;;;;;;;;;;25.35;37.44922;102283;;;;-75
2022/06/11 11:55:47;;;;;;;;;;;;;;;25.32;37.17969;102286.1;;;;-78
2022/06/11 12:00:51;;;;;;;;;;;;;;;25.42;37.13086;102279.4;;;;-79
2022/06/11 12:05:52;;;;;;;;;;;;;;;25.64;38.91113;102290.3;;;;-83
2022/06/11 12:10:49;;;;;;;;;;;;;;;25.6;38.20117;102280.2;;;;-78
2022/06/11 12:15:52;;;;;;;;;;;;;;;25.71;37.94238;102292;;;;-80
2022/06/11 12:17:47;;;;;;;10.5;2.1;;;;;;;;;;;;;-80
2022/06/11 12:20:46;;;;;;;;;;;;;;;25.4;38.90234;102294.3;;;;-78
2022/06/11 12:25:49;;;;;;;;;;;;;;;25.71;38.52246;102300;;;;-76
2022/06/11 12:30:46;;;;;;;;;;;;;;;25.45;39.3584;102287.4;;;;-81
2022/06/11 12:35:50;;;;;;;;;;;;;;;25.6;40.37891;102292.1;;;;-75
2022/06/11 12:40:49;;;;;;;;;;;;;;;25.28;39.04199;102288.5;;;;-78
2022/06/11 12:45:50;;;;;;;;;;;;;;;25.56;39.24023;102290;;;;-79
2022/06/11 12:48:06;;;;;;;12.5;2.3;;;;;;;;;;;;;-77
2022/06/11 12:50:53;;;;;;;;;;;;;;;25.84;39.125;102296.1;;;;-79
2022/06/11 12:55:53;;;;;;;;;;;;;;;25.54;38.6709;102301.2;;;;-80
2022/06/11 13:00:49;;;;;;;;;;;;;;;25.09;39.71973;102296.9;;;;-79
2022/06/11 13:05:59;;;;;;;;;;;;;;;25.27;38.90137;102304.9;;;;-77
2022/06/11 13:10:51;;;;;;;;;;;;;;;25.07;37.64648;102311.4;;;;-81
2022/06/11 13:16:01;;;;;;;;;;;;;;;25.15;38.45215;102313.6;;;;-78
2022/06/11 13:17:58;;;;;;;10.2;2;;;;;;;;;;;;;-79
2022/06/11 13:20:49;;;;;;;;;;;;;;;24.8;38.52637;102313.4;;;;-79
2022/06/11 13:25:52;;;;;;;;;;;;;;;25.03;38.69629;102316.8;;;;-78
2022/06/11 13:30:51;;;;;;;;;;;;;;;24.66;39.0918;102311.8;;;;-80
2022/06/11 13:35:52;;;;;;;;;;;;;;;24.75;37.21387;102313.8;;;;-78
2022/06/11 13:40:50;;;;;;;;;;;;;;;24.58;37.79004;102309.7;;;;-77
2022/06/11 13:45:52;;;;;;;;;;;;;;;24.67;38.54883;102301.8;;;;-78
2022/06/11 13:48:02;;;;;;;12;2.4;;;;;;;;;;;;;-81
2022/06/11 13:50:51;;;;;;;;;;;;;;;24.8;39.52051;102303;;;;-81
2022/06/11 13:55:48;;;;;;;;;;;;;;;24.97;39.33984;102309.1;;;;-82
2022/06/11 14:01:01;;;;;;;;;;;;;;;24.87;37.06152;102298.8;;;;-77
2022/06/11 14:05:48;;;;;;;;;;;;;;;25.03;37.43359;102296.9;;;;-77
2022/06/11 14:10:47;;;;;;;;;;;;;;;25.07;37.50684;102315.5;;;;-79
2022/06/11 14:15:48;;;;;;;;;;;;;;;24.93;37.2168;102305.5;;;;-78
2022/06/11 14:17:59;;;;;;;8.9;2;;;;;;;;;;;;;-79
2022/06/11 14:20:54;;;;;;;;;;;;;;;24.89;37.0752;102306.2;;;;-80
2022/06/11 14:25:47;;;;;;;;;;;;;;;24.58;36.64453;102306.5;;;;-78
2022/06/11 14:30:57;;;;;;;;;;;;;;;24.61;37.36426;102306.8;;;;-80
2022/06/11 14:35:55;;;;;;;;;;;;;;;24.57;37.53418;102301.5;;;;-74
2022/06/11 14:40:46;;;;;;;;;;;;;;;24.47;38.12793;102311.1;;;;-79
2022/06/11 14:46:02;;;;;;;;;;;;;;;24.56;37.62598;102300;;;;-81
2022/06/11 14:48:03;;;;;;;8.8;1.8;;;;;;;;;;;;;-80
2022/06/11 14:50:52;;;;;;;;;;;;;;;24.61;37.0752;102308.6;;;;-77
2022/06/11 14:55:47;;;;;;;;;;;;;;;24.39;36.01563;102301;;;;-76
2022/06/11 15:00:56;;;;;;;;;;;;;;;24.04;35.23633;102303.6;;;;-77
2022/06/11 15:06:11;;;;;;;;;;;;;;;24.29;35.88086;102296.3;;;;-81
2022/06/11 15:10:47;;;;;;;;;;;;;;;24;34.75879;102299.8;;;;-79
2022/06/11 15:15:56;;;;;;;;;;;;;;;24.18;35.52539;102287.1;;;;-80
2022/06/11 15:18:09;;;;;;;7.6;1.6;;;;;;;;;;;;;-79
2022/06/11 15:20:46;;;;;;;;;;;;;;;24.5;35.44629;102301.6;;;;-80
2022/06/11 15:25:49;;;;;;;;;;;;;;;24.49;34.32227;102307.9;;;;-80
2022/06/11 15:30:46;;;;;;;;;;;;;;;24.53;33.88574;102303.7;;;;-75
2022/06/11 15:35:47;;;;;;;;;;;;;;;24.32;33.82324;102300.4;;;;-78
2022/06/11 15:40:49;;;;;;;;;;;;;;;24.13;33.69336;102301.9;;;;-76
2022/06/11 15:45:47;;;;;;;;;;;;;;;23.85;32.79297;102308;;;;-77
2022/06/11 15:48:13;;;;;;;6.9;1.2;;;;;;;;;;;;;-77
2022/06/11 15:50:55;;;;;;;;;;;;;;;23.63;33.13574;102298.3;;;;-77
2022/06/11 15:55:45;;;;;;;;;;;;;;;23.39;33.22168;102303.1;;;;-79
2022/06/11 16:00:50;;;;;;;;;;;;;;;23.41;33.43164;102298.2;;;;-77
2022/06/11 16:05:52;;;;;;;;;;;;;;;23.5;33.69141;102293.3;;;;-76
2022/06/11 16:10:45;;;;;;;;;;;;;;;23.29;32.80957;102290.8;;;;-77
2022/06/11 16:15:46;;;;;;;;;;;;;;;23.3;33.58496;102287.6;;;;-77
2022/06/11 16:18:23;;;;;;;4;1.1;;;;;;;;;;;;;-80
2022/06/11 16:20:46;;;;;;;;;;;;;;;23.3;33.59668;102292.8;;;;-79
2022/06/11 16:25:47;;;;;;;;;;;;;;;23.2;33.32324;102298.7;;;;-76
2022/06/11 16:30:46;;;;;;;;;;;;;;;23.1;32.80762;102301.2;;;;-78
2022/06/11 16:35:49;;;;;;;;;;;;;;;23.14;33.28418;102291.2;;;;-79
2022/06/11 16:40:54;;;;;;;;;;;;;;;22.94;32.64648;102294.3;;;;-82
2022/06/11 16:45:49;;;;;;;;;;;;;;;22.92;33.56738;102296.4;;;;-81
2022/06/11 16:48:20;;;;;;;3.2;0.9;;;;;;;;;;;;;-76
2022/06/11 17:00:46;;;;;;;;;;;;;;;22.86;34.09473;102290.3;;;;-78
2022/06/11 17:05:50;;;;;;;;;;;;;;;22.55;33.73633;102293.3;;;;-78
2022/06/11 17:10:47;;;;;;;;;;;;;;;22.42;34.3252;102286.8;;;;-79
2022/06/11 17:15:45;;;;;;;;;;;;;;;22.48;34.33008;102291.5;;;;-79
2022/06/11 17:18:27;;;;;;;3.3;0.7;;;;;;;;;;;;;-77
2022/06/11 17:20:46;;;;;;;;;;;;;;;22.33;35.0332;102288.6;;;;-77
2022/06/11 17:25:46;;;;;;;;;;;;;;;22.26;35.14258;102297.9;;;;-76
2022/06/11 17:31:06;;;;;;;;;;;;;;;22.32;34.98535;102300.9;;;;-85
2022/06/11 17:35:50;;;;;;;;;;;;;;;22.84;34.72656;102296.5;;;;-88
2022/06/11 18:48:45;;;;;;;4.9;1.2;;;;;;;;;;;;;-93
2022/06/11 18:54:51;;;;;;;;;;;;;;;22.1;38.43262;102267.5;;;;-90
2022/06/11 19:04:55;;;;;;;;;;;;;;;21.88;38.52832;102269.4;;;;-88
2022/06/11 19:14:45;;;;;;;;;;;;;;;21.44;38.57129;102271.6;;;;-89
2022/06/11 19:18:59;;;;;;;3.3;1;;;;;;;;;;;;;-89
2022/06/11 19:19:42;;;;;;;;;;;;;;;21.22;38.54004;102278.6;;;;-89
2022/06/11 19:24:29;;;;;;;;;;;;;;;20.99;38.85352;102280.6;;;;-76
2022/06/11 19:29:29;;;;;;;;;;;;;;;20.76;39.36035;102284.5;;;;-77
2022/06/11 19:34:29;;;;;;;;;;;;;;;20.53;39.82031;102284.3;;;;-78
2022/06/11 19:39:30;;;;;;;;;;;;;;;20.27;39.87793;102281.9;;;;-77
2022/06/11 19:44:31;;;;;;;;;;;;;;;20;40.4375;102284.2;;;;-77
2022/06/11 19:48:36;;;;;;;5.7;1.2;;;;;;;;;;;;;-77
2022/06/11 19:49:29;;;;;;;;;;;;;;;19.76;41.15918;102287.7;;;;-78
2022/06/11 19:54:29;;;;;;;;;;;;;;;19.54;41.52637;102285.2;;;;-77
2022/06/11 19:59:29;;;;;;;;;;;;;;;19.32;42.14648;102284.4;;;;-78
2022/06/11 20:04:29;;;;;;;;;;;;;;;19.11;42.56934;102286.8;;;;-75
2022/06/11 20:09:29;;;;;;;;;;;;;;;18.89;43.43848;102289.7;;;;-76
2022/06/11 20:14:29;;;;;;;;;;;;;;;18.69;43.93262;102293.5;;;;-76
2022/06/11 20:18:37;;;;;;;6.3;1.5;;;;;;;;;;;;;-77
2022/06/11 20:19:32;;;;;;;;;;;;;;;18.49;44.5498;102306.5;;;;-75
2022/06/11 20:24:29;;;;;;;;;;;;;;;18.28;44.88184;102300.9;;;;-77
2022/06/11 20:29:29;;;;;;;;;;;;;;;18.11;45.27441;102298.8;;;;-75
2022/06/11 20:34:29;;;;;;;;;;;;;;;17.93;45.75684;102299.5;;;;-76
2022/06/11 20:39:29;;;;;;;;;;;;;;;17.79;46.21973;102305.7;;;;-76
2022/06/11 20:44:31;;;;;;;;;;;;;;;17.65;46.44336;102303.5;;;;-77
2022/06/11 20:48:42;;;;;;;6.3;1.3;;;;;;;;;;;;;-77
2022/06/11 20:54:29;;;;;;;;;;;;;;;17.35;46.93359;102292.1;;;;-76
2022/06/11 20:59:29;;;;;;;;;;;;;;;17.22;47.29395;102286.5;;;;-83
2022/06/11 21:04:30;;;;;;;;;;;;;;;17.07;47.5498;102289.1;;;;-84
2022/06/11 21:09:32;;;;;;;;;;;;;;;16.94;47.72949;102287.4;;;;-82
2022/06/11 21:14:32;;;;;;;;;;;;;;;16.84;48.13672;102284;;;;-83
2022/06/11 21:18:44;;;;;;;4.7;1.3;;;;;;;;;;;;;-83
2022/06/11 21:19:29;;;;;;;;;;;;;;;16.72;48.0332;102283.1;;;;-82
2022/06/11 21:24:31;;;;;;;;;;;;;;;16.64;48.5791;102281.8;;;;-83
2022/06/11 21:29:29;;;;;;;;;;;;;;;16.53;48.79492;102284.5;;;;-81
2022/06/11 21:34:29;;;;;;;;;;;;;;;16.41;49.07617;102289.7;;;;-83
2022/06/11 21:39:29;;;;;;;;;;;;;;;16.35;49.49902;102289.1;;;;-84
2022/06/11 21:44:31;;;;;;;;;;;;;;;16.27;49.56934;102292.4;;;;-82
2022/06/11 21:48:45;;;;;;;5.5;1.1;;;;;;;;;;;;;-84
2022/06/11 21:49:29;;;;;;;;;;;;;;;16.2;49.57227;102295.6;;;;-83
2022/06/11 21:54:31;;;;;;;;;;;;;;;16.12;49.9375;102292.8;;;;-83
2022/06/11 21:59:29;;;;;;;;;;;;;;;16.01;49.78906;102298.7;;;;-81
2022/06/11 22:04:30;;;;;;;;;;;;;;;15.94;50.05176;102298.2;;;;-82
2022/06/11 22:09:29;;;;;;;;;;;;;;;15.84;50.09766;102292.3;;;;-82
2022/06/11 22:14:30;;;;;;;;;;;;;;;15.76;50.04297;102288.7;;;;-81
2022/06/11 22:18:47;;;;;;;3.8;1.2;;;;;;;;;;;;;-82
2022/06/11 22:19:30;;;;;;;;;;;;;;;15.67;50.34961;102291.3;;;;-84
2022/06/11 22:24:30;;;;;;;;;;;;;;;15.59;50.4873;102296.2;;;;-84
2022/06/11 22:29:29;;;;;;;;;;;;;;;15.56;50.38184;102299.2;;;;-84
2022/06/11 22:34:31;;;;;;;;;;;;;;;15.48;50.55371;102299.6;;;;-81
2022/06/11 22:39:30;;;;;;;;;;;;;;;15.45;50.1543;102301.5;;;;-82
2022/06/11 22:44:29;;;;;;;;;;;;;;;15.35;50.65137;102298.8;;;;-83
2022/06/11 22:49:00;;;;;;;5.3;1.1;;;;;;;;;;;;;-82
2022/06/11 22:49:29;;;;;;;;;;;;;;;15.31;50.74707;102295.7;;;;-82
2022/06/11 22:54:38;;;;;;;;;;;;;;;15.24;50.69434;102295;;;;-81
2022/06/11 22:59:29;;;;;;;;;;;;;;;15.17;51.07031;102291.3;;;;-82
2022/06/11 23:04:29;;;;;;;;;;;;;;;15.13;51.00977;102285.3;;;;-84
2022/06/11 23:09:29;;;;;;;;;;;;;;;15.07;51.51074;102284.6;;;;-81
2022/06/11 23:14:30;;;;;;;;;;;;;;;15.01;51.99902;102285.8;;;;-82
2022/06/11 23:18:51;;;;;;;4.7;1;;;;;;;;;;;;;-81
2022/06/11 23:19:29;;;;;;;;;;;;;;;14.95;51.86621;102287.3;;;;-80
2022/06/11 23:24:29;;;;;;;;;;;;;;;14.9;52.03125;102288;;;;-80
2022/06/11 23:29:29;;;;;;;;;;;;;;;14.86;52.13965;102287.6;;;;-82
2022/06/11 23:34:31;;;;;;;;;;;;;;;14.83;52.34961;102286;;;;-84
2022/06/11 23:39:29;;;;;;;;;;;;;;;14.79;52.77344;102283;;;;-81
2022/06/11 23:45:37;;;;;;;;;;;;;;;14.72;52.9668;102284.2;;;;-82
2022/06/11 23:48:52;;;;;;;5.1;1.2;;;;;;;;;;;;;-81
2022/06/11 23:49:29;;;;;;;;;;;;;;;14.69;52.90723;102292.1;;;;-83
2022/06/11 23:54:29;;;;;;;;;;;;;;;14.67;53.7041;102291;;;;-82
2022/06/11 23:59:29;;;;;;;;;;;;;;;14.63;53.44043;102287.6;;;;-83
